Nearby METAR Reports

 

KALB - Albany, New York, USA
Distance from station: E 47mi, 75km
Updated: Wed, 08-Dec-2021 6:56pm EST
Light snow, Mist, Overcast
Light snow, Mist, Overcast
 Wind from N
Wind: N 6 mph , 9 km/h
Temperature: 28°F , -2°C
Wind Chill: 21°F , -6°C
Dew Point: 27°F , -3°C
Humidity: 93%
Barometer: 29.91 inHg , 1012.9 hPa
Summary: Light snow, Mist
Clouds: Overcast
Visibility: 1 mile , 2 km
Cloud details: Partly cloudy 500 ft
Overcast 1500 ft
2021/12/08 23:56 KALB 082356Z 35005KT 1SM R01/P6000FT -SN BR SCT005 OVC015 M02/M03 A2991 RMK AO2 SFC VIS 1 1/2 VIS 1V2 P0001 T10171028
KSLK - Saranac Lake, New York, USA
Distance from station: N 110mi, 177km
Updated: Wed, 08-Dec-2021 7:13pm EST
Light snow, Mist, Overcast
Light snow, Mist, Overcast
 Wind from ENE
Wind: ENE 5 mph , 7 km/h
Temperature: 19°F , -7°C
Wind Chill: 12°F , -11°C
Dew Point: 18°F , -8°C
Humidity: 93%
Barometer: 29.83 inHg , 1010.2 hPa
Summary: Light snow, Mist
Clouds: Overcast
Visibility: 1 3/4 miles , 2.8 km
Cloud details: Overcast 2600 ft
2021/12/09 00:13 KSLK 090013Z AUTO 06004KT 1 3/4SM -SN BR OVC026 M07/M08 A2983 RMK AO2 SNB2359 P0000 T10671078
 
KSYR - Syracuse, New York, USA
Distance from station: W 73mi, 117km
Updated: Wed, 08-Dec-2021 7:10pm EST
Light snow, Mist, Overcast
Light snow, Mist, Overcast
 Wind from W
Wind: W 8 mph , 13 km/h
Temperature: 30°F , -1°C
Wind Chill: 22°F , -6°C
Dew Point: 28°F , -2°C
Humidity: 93%
Barometer: 29.93 inHg , 1013.5 hPa
Summary: Light snow, Mist
Clouds: Overcast
Visibility: 2 1/2 miles , 4 km
Cloud details: Few Clouds 500 ft
Mostly cloudy 1000 ft
Overcast 2500 ft
2021/12/09 00:10 KSYR 090010Z 28007KT 2 1/2SM -SN BR FEW005 BKN010 OVC025 M01/M02 A2993 RMK AO2 T10061017 PNO $
KBGM - Binghamton, New York, USA
Distance from station: SW 78mi, 126km
Updated: Wed, 08-Dec-2021 6:53pm EST
Light snow, Mist, Overcast
Light snow, Mist, Overcast
 Wind from W
Wind: W 7 mph , 11 km/h
Temperature: 27°F , -3°C
Wind Chill: 19°F , -7°C
Dew Point: 25°F , -4°C
Humidity: 93%
Barometer: 29.84 inHg , 1010.5 hPa
Summary: Light snow, Mist
Clouds: Overcast
Visibility: 1 mile , 2 km
Cloud details: Overcast 500 ft
2021/12/08 23:53 KBGM 082353Z 26006KT 1SM -SN BR OVC005 M03/M04 A2984 RMK AO2 SFC VIS 2 1/2 CIG 003V009 SLP125 P0000 60004 T10331039 11011 21033 51007
 
KRME - Rome, New York, USA
Distance from station: WNW 43mi, 69km
Updated: Wed, 08-Dec-2021 7:09pm EST
Light snow, Mist, Overcast
Light snow, Mist, Overcast
 Wind from calm
Wind: Calm
Temperature: 28°F , -2°C
Dew Point: 28°F , -2°C
Humidity: 100%
Barometer: 29.92 inHg , 1013.2 hPa
Summary: Light snow, Mist
Clouds: Overcast
Visibility: 1 3/4 miles , 2.8 km
Cloud details: Partly cloudy 600 ft
Overcast 2400 ft
2021/12/09 00:09 KRME 090009Z 00000KT 1 3/4SM -SN BR SCT006 OVC024 M02/M02 A2992 RMK AO2 P0000 T10171022
KJFK - New York, New York, USA
Distance from station: SSE 159mi, 256km
Updated: Wed, 08-Dec-2021 6:51pm EST
Overcast
Overcast
 Wind from N
Wind: N 8 mph , 13 km/h
Temperature: 37°F , 3°C
Wind Chill: 31°F , -1°C
Dew Point: 34°F , 1°C
Humidity: 87%
Barometer: 29.88 inHg , 1011.9 hPa
Clouds: Overcast
Visibility: 10 miles , 16 km
Cloud details: Few Clouds 1400 ft
Partly cloudy 3800 ft
Overcast 9000 ft
2021/12/08 23:51 KJFK 082351Z 36007KT 10SM FEW014 SCT038 OVC090 03/01 A2988 RMK AO2 SLP119 T00330006 10056 20033 56001
 
KROC - Rochester, New York, USA
Distance from station: W 150mi, 242km
Updated: Wed, 08-Dec-2021 6:54pm EST
Light snow, Overcast
Light snow, Overcast
 Wind from W
Wind: W 6 mph , 9 km/h
Temperature: 27°F , -3°C
Wind Chill: 20°F , -7°C
Dew Point: 25°F , -4°C
Humidity: 93%
Barometer: 29.95 inHg , 1014.2 hPa
Summary: Light Snow
Clouds: Overcast
Visibility: 9 miles , 14 km
Cloud details: Few Clouds 800 ft
Few Clouds 2600 ft
Overcast 6500 ft
2021/12/08 23:54 KROC 082354Z 26005KT 9SM -SN FEW008 FEW026 OVC065 M03/M04 A2995 RMK AO2 SNE13B49 SLP153 P0000 60004 T10281044 11022 21033 53009
KART - Watertown, New York, USA
Distance from station: NNW 103mi, 166km
Updated: Wed, 08-Dec-2021 7:07pm EST
Light snow, Mist, Overcast
Light snow, Mist, Overcast
 Wind from NNW
Wind: NNW 7 mph , 11 km/h
Temperature: 28°F , -2°C
Wind Chill: 21°F , -6°C
Dew Point: 25°F , -4°C
Humidity: 86%
Barometer: 29.92 inHg , 1013.2 hPa
Summary: Light snow, Mist
Clouds: Overcast
Visibility: 3 miles , 5 km
Cloud details: Few Clouds 500 ft
Partly cloudy 1800 ft
Overcast 3100 ft
2021/12/09 00:07 KART 090007Z AUTO 33006KT 3SM -SN BR FEW005 SCT018 OVC031 M02/M04 A2992 RMK AO2 P0000 T10221039
 
KELM - Elmira-Corning, New York, USA
Distance from station: SSW 121mi, 195km
Updated: Wed, 08-Dec-2021 7:08pm EST
Mostly cloudy
Mostly cloudy
 Wind from WNW
Wind: WNW 12 mph , 19 km/h
Temperature: 30°F , -1°C
Wind Chill: 20°F , -7°C
Dew Point: 23°F , -5°C
Humidity: 75%
Barometer: 29.91 inHg , 1012.9 hPa
Clouds: Mostly cloudy
Visibility: 10 miles , 16 km
Cloud details: Few Clouds 1700 ft
Partly cloudy 2200 ft
Mostly cloudy 6000 ft
2021/12/09 00:08 KELM 090008Z 30010KT 10SM FEW017 SCT022 BKN060 M01/M05 A2991 RMK AO2 T10061050
KJHW - Jamestown, New York, USA
Distance from station: SW 238mi, 383km
Updated: Wed, 08-Dec-2021 7:03pm EST
Light snow, Mist, Overcast
Light snow, Mist, Overcast
 Wind from W
Wind: W 13 mph , 20 km/h
Temperature: 25°F , -4°C
Wind Chill: 13°F , -11°C
Dew Point: 21°F , -6°C
Humidity: 86%
Barometer: 29.93 inHg , 1013.5 hPa
Summary: Light snow, Mist
Clouds: Overcast
Visibility: 6 miles , 10 km
Cloud details: Partly cloudy 1200 ft
Mostly cloudy 2000 ft
Overcast 3300 ft
2021/12/09 00:03 KJHW 090003Z AUTO 26011KT 6SM -SN BR SCT012 BKN020 OVC033 M04/M06 A2993 RMK AO2 P0000 FZRANO
 
KMSS - Massena, New York, USA
Distance from station: N 141mi, 232km
Updated: Wed, 08-Dec-2021 6:53pm EST
Light snow, Mist, Overcast
Light snow, Mist, Overcast
 Wind from NE
Wind: NE 10 mph , 17 km/h
Temperature: 19°F , -7°C
Wind Chill: 8°F , -13°C
Dew Point: 16°F , -9°C
Humidity: 86%
Barometer: 29.97 inHg , 1014.9 hPa
Summary: Light snow, Mist
Clouds: Overcast
Visibility: 6 miles , 10 km
Cloud details: Few Clouds 1000 ft
Few Clouds 1700 ft
Overcast 5000 ft
2021/12/08 23:53 KMSS 082353Z AUTO 04009KT 6SM -SN BR FEW010 FEW017 OVC050 M07/M09 A2997 RMK AO2 SLP155 P0000 60000 T10721089 11039 21072 58001
KBUF - Buffalo, New York, USA
Distance from station: W 204mi, 328km
Updated: Wed, 08-Dec-2021 6:54pm EST
Partly cloudy
Partly cloudy
 Wind from W
Wind: W 8 mph , 13 km/h
Temperature: 27°F , -3°C
Wind Chill: 19°F , -7°C
Dew Point: 19°F , -7°C
Humidity: 74%
Barometer: 29.96 inHg , 1014.6 hPa
Clouds: Partly cloudy
Visibility: 10 miles , 16 km
Cloud details: Few Clouds 6500 ft
Partly cloudy 10000 ft
2021/12/08 23:54 KBUF 082354Z 28007KT 10SM FEW065 SCT100 M03/M07 A2996 RMK AO2 SLP156 4/002 60012 T10281067 11017 21028 51020